sensor_id;sensor_type;location;lat;lon;timestamp;pressure;altitude;pressure_sealevel;temperature;humidity
53546;BME280;39432;51.902;10.844;2023-02-12T00:00:06;101603.06;;;7.63;100.00
53546;BME280;39432;51.902;10.844;2023-02-12T00:02:41;101607.88;;;7.76;100.00
53546;BME280;39432;51.902;10.844;2023-02-12T00:05:11;101618.28;;;7.73;100.00
53546;BME280;39432;51.902;10.844;2023-02-12T00:07:42;101616.88;;;7.77;100.00
53546;BME280;39432;51.902;10.844;2023-02-12T00:10:11;101612.38;;;7.69;100.00
53546;BME280;39432;51.902;10.844;2023-02-12T00:12:44;101617.44;;;7.72;100.00
53546;BME280;39432;51.902;10.844;2023-02-12T00:15:13;101619.69;;;7.83;100.00
53546;BME280;39432;51.902;10.844;2023-02-12T00:17:43;101616.97;;;7.69;100.00
53546;BME280;39432;51.902;10.844;2023-02-12T00:20:12;101623.94;;;7.71;100.00
53546;BME280;39432;51.902;10.844;2023-02-12T00:22:42;101628.84;;;7.76;100.00
53546;BME280;39432;51.902;10.844;2023-02-12T00:25:12;101625.25;;;7.60;100.00
53546;BME280;39432;51.902;10.844;2023-02-12T00:27:45;101629.47;;;7.63;100.00
53546;BME280;39432;51.902;10.844;2023-02-12T00:30:15;101632.59;;;7.75;100.00
53546;BME280;39432;51.902;10.844;2023-02-12T00:32:45;101626.59;;;7.64;100.00
53546;BME280;39432;51.902;10.844;2023-02-12T00:35:14;101623.66;;;7.66;100.00
53546;BME280;39432;51.902;10.844;2023-02-12T00:37:44;101628.63;;;7.62;100.00
53546;BME280;39432;51.902;10.844;2023-02-12T00:42:46;101630.31;;;7.63;100.00
53546;BME280;39432;51.902;10.844;2023-02-12T00:45:16;101628.63;;;7.62;100.00
53546;BME280;39432;51.902;10.844;2023-02-12T00:47:46;101630.50;;;7.77;100.00
53546;BME280;39432;51.902;10.844;2023-02-12T00:50:15;101635.47;;;7.73;100.00
53546;BME280;39432;51.902;10.844;2023-02-12T00:52:45;101643.22;;;7.70;100.00
53546;BME280;39432;51.902;10.844;2023-02-12T00:55:15;101647.97;;;7.68;100.00
53546;BME280;39432;51.902;10.844;2023-02-12T00:57:47;101640.09;;;7.73;100.00
53546;BME280;39432;51.902;10.844;2023-02-12T01:00:17;101636.81;;;7.62;100.00
53546;BME280;39432;51.902;10.844;2023-02-12T01:02:47;101642.63;;;7.74;100.00
53546;BME280;39432;51.902;10.844;2023-02-12T01:05:17;101645.66;;;7.64;100.00
53546;BME280;39432;51.902;10.844;2023-02-12T01:07:48;101648.06;;;7.74;100.00
53546;BME280;39432;51.902;10.844;2023-02-12T01:10:19;101645.19;;;7.76;100.00
53546;BME280;39432;51.902;10.844;2023-02-12T01:12:51;101641.50;;;7.69;100.00
53546;BME280;39432;51.902;10.844;2023-02-12T01:15:22;101647.63;;;7.71;100.00
53546;BME280;39432;51.902;10.844;2023-02-12T01:17:51;101651.75;;;7.66;100.00
53546;BME280;39432;51.902;10.844;2023-02-12T01:20:23;101654.09;;;7.70;100.00
53546;BME280;39432;51.902;10.844;2023-02-12T01:22:53;101663.97;;;7.71;100.00
53546;BME280;39432;51.902;10.844;2023-02-12T01:25:23;101655.31;;;7.82;100.00
53546;BME280;39432;51.902;10.844;2023-02-12T01:27:56;101656.25;;;7.59;100.00
53546;BME280;39432;51.902;10.844;2023-02-12T01:30:26;101660.22;;;7.86;100.00
53546;BME280;39432;51.902;10.844;2023-02-12T01:32:56;101651.28;;;7.78;100.00
53546;BME280;39432;51.902;10.844;2023-02-12T01:35:26;101653.72;;;7.73;100.00
53546;BME280;39432;51.902;10.844;2023-02-12T01:37:56;101642.81;;;7.58;100.00
53546;BME280;39432;51.902;10.844;2023-02-12T01:40:26;101644.22;;;7.69;100.00
53546;BME280;39432;51.902;10.844;2023-02-12T01:43:01;101641.31;;;7.55;100.00
53546;BME280;39432;51.902;10.844;2023-02-12T01:45:47;101647.41;;;7.57;100.00
53546;BME280;39432;51.902;10.844;2023-02-12T01:48:22;101642.72;;;7.66;100.00
53546;BME280;39432;51.902;10.844;2023-02-12T01:50:54;101646.66;;;7.63;100.00
53546;BME280;39432;51.902;10.844;2023-02-12T01:53:30;101651.94;;;7.50;100.00
53546;BME280;39432;51.902;10.844;2023-02-12T01:56:01;101655.31;;;7.52;100.00
53546;BME280;39432;51.902;10.844;2023-02-12T01:58:37;101655.03;;;7.47;100.00
53546;BME280;39432;51.902;10.844;2023-02-12T02:01:12;101652.22;;;7.55;100.00
53546;BME280;39432;51.902;10.844;2023-02-12T02:03:44;101654.16;;;7.47;100.00
53546;BME280;39432;51.902;10.844;2023-02-12T02:06:19;101658.41;;;7.49;100.00
53546;BME280;39432;51.902;10.844;2023-02-12T02:08:49;101662.34;;;7.47;100.00
53546;BME280;39432;51.902;10.844;2023-02-12T02:11:19;101661.13;;;7.49;100.00
53546;BME280;39432;51.902;10.844;2023-02-12T02:14:04;101675.41;;;7.51;100.00
53546;BME280;39432;51.902;10.844;2023-02-12T02:16:51;101666.38;;;7.51;100.00
53546;BME280;39432;51.902;10.844;2023-02-12T02:19:41;101673.06;;;7.48;100.00
53546;BME280;39432;51.902;10.844;2023-02-12T02:22:22;101675.97;;;7.61;100.00
53546;BME280;39432;51.902;10.844;2023-02-12T02:25:23;101670.34;;;7.63;100.00
53546;BME280;39432;51.902;10.844;2023-02-12T02:28:02;101649.94;;;7.44;100.00
53546;BME280;39432;51.902;10.844;2023-02-12T02:30:39;101663.94;;;7.41;100.00
53546;BME280;39432;51.902;10.844;2023-02-12T02:33:21;101661.88;;;7.43;100.00
53546;BME280;39432;51.902;10.844;2023-02-12T02:35:58;101668.84;;;7.60;100.00
53546;BME280;39432;51.902;10.844;2023-02-12T02:38:37;101664.06;;;7.48;100.00
53546;BME280;39432;51.902;10.844;2023-02-12T02:41:14;101658.31;;;7.57;100.00
53546;BME280;39432;51.902;10.844;2023-02-12T02:43:48;101659.91;;;7.52;100.00
53546;BME280;39432;51.902;10.844;2023-02-12T02:46:26;101662.53;;;7.45;100.00
53546;BME280;39432;51.902;10.844;2023-02-12T02:48:59;101666.69;;;7.56;100.00
53546;BME280;39432;51.902;10.844;2023-02-12T02:51:32;101666.03;;;7.69;100.00
53546;BME280;39432;51.902;10.844;2023-02-12T02:54:08;101663.47;;;7.52;100.00
53546;BME280;39432;51.902;10.844;2023-02-12T02:56:41;101663.75;;;7.57;100.00
53546;BME280;39432;51.902;10.844;2023-02-12T02:59:16;101660.75;;;7.52;100.00
53546;BME280;39432;51.902;10.844;2023-02-12T03:01:55;101662.06;;;7.56;100.00
53546;BME280;39432;51.902;10.844;2023-02-12T03:04:29;101666.03;;;7.69;100.00
53546;BME280;39432;51.902;10.844;2023-02-12T03:07:03;101662.28;;;7.70;100.00
53546;BME280;39432;51.902;10.844;2023-02-12T03:09:37;101668.09;;;7.66;100.00
53546;BME280;39432;51.902;10.844;2023-02-12T03:12:11;101660.28;;;7.49;100.00
53546;BME280;39432;51.902;10.844;2023-02-12T03:14:46;101663.75;;;7.57;100.00
53546;BME280;39432;51.902;10.844;2023-02-12T03:17:22;101670.06;;;7.58;100.00
53546;BME280;39432;51.902;10.844;2023-02-12T03:19:55;101673.91;;;7.63;100.00
53546;BME280;39432;51.902;10.844;2023-02-12T03:22:30;101669.66;;;7.46;100.00
53546;BME280;39432;51.902;10.844;2023-02-12T03:25:03;101670.16;;;7.50;100.00
53546;BME280;39432;51.902;10.844;2023-02-12T03:27:40;101679.56;;;7.47;100.00
53546;BME280;39432;51.902;10.844;2023-02-12T03:30:12;101670.16;;;7.50;100.00
53546;BME280;39432;51.902;10.844;2023-02-12T03:32:49;101673.81;;;7.42;100.00
53546;BME280;39432;51.902;10.844;2023-02-12T03:35:24;101686.31;;;7.51;100.00
53546;BME280;39432;51.902;10.844;2023-02-12T03:38:00;101682.34;;;7.39;100.00
53546;BME280;39432;51.902;10.844;2023-02-12T03:40:34;101694.84;;;7.48;100.00
53546;BME280;39432;51.902;10.844;2023-02-12T03:43:07;101698.34;;;7.72;100.00
53546;BME280;39432;51.902;10.844;2023-02-12T03:45:47;101701.72;;;7.74;100.00
53546;BME280;39432;51.902;10.844;2023-02-12T03:48:24;101697.13;;;7.59;100.00
53546;BME280;39432;51.902;10.844;2023-02-12T03:50:58;101698.91;;;7.67;100.00
53546;BME280;39432;51.902;10.844;2023-02-12T03:53:31;101696.84;;;7.54;100.00
53546;BME280;39432;51.902;10.844;2023-02-12T03:56:04;101696.94;;;7.61;100.00
53546;BME280;39432;51.902;10.844;2023-02-12T03:58:37;101710.94;;;7.73;100.00
53546;BME280;39432;51.902;10.844;2023-02-12T04:01:10;101702.56;;;7.59;100.00
53546;BME280;39432;51.902;10.844;2023-02-12T04:03:43;101700.59;;;7.53;100.00
53546;BME280;39432;51.902;10.844;2023-02-12T04:06:19;101710.81;;;7.51;100.00
53546;BME280;39432;51.902;10.844;2023-02-12T04:08:49;101713.19;;;7.54;100.00
53546;BME280;39432;51.902;10.844;2023-02-12T04:11:24;101713.53;;;7.51;100.00
53546;BME280;39432;51.902;10.844;2023-02-12T04:14:07;101725.03;;;7.61;100.00
53546;BME280;39432;51.902;10.844;2023-02-12T04:16:46;101730.31;;;7.78;100.00
53546;BME280;39432;51.902;10.844;2023-02-12T04:19:29;101728.63;;;7.77;100.00
53546;BME280;39432;51.902;10.844;2023-02-12T04:22:13;101722.00;;;7.56;100.00
53546;BME280;39432;51.902;10.844;2023-02-12T04:24:57;101718.63;;;7.54;100.00
53546;BME280;39432;51.902;10.844;2023-02-12T04:27:34;101730.94;;;7.80;100.00
53546;BME280;39432;51.902;10.844;2023-02-12T04:30:10;101738.66;;;7.76;100.00
53546;BME280;39432;51.902;10.844;2023-02-12T04:32:44;101743.06;;;7.62;100.00
53546;BME280;39432;51.902;10.844;2023-02-12T04:35:20;101739.13;;;7.80;100.00
53546;BME280;39432;51.902;10.844;2023-02-12T04:37:54;101742.25;;;7.77;100.00
53546;BME280;39432;51.902;10.844;2023-02-12T04:40:27;101749.25;;;7.56;100.00
53546;BME280;39432;51.902;10.844;2023-02-12T04:42:57;101750.47;;;7.54;100.00
53546;BME280;39432;51.902;10.844;2023-02-12T04:45:28;101753.94;;;7.62;100.00
53546;BME280;39432;51.902;10.844;2023-02-12T04:47:59;101754.41;;;7.51;100.00
53546;BME280;39432;51.902;10.844;2023-02-12T04:50:37;101751.50;;;7.68;100.00
53546;BME280;39432;51.902;10.844;2023-02-12T04:53:08;101751.09;;;7.41;100.00
53546;BME280;39432;51.902;10.844;2023-02-12T04:55:38;101756.28;;;7.51;100.00
53546;BME280;39432;51.902;10.844;2023-02-12T04:58:08;101755.81;;;7.47;100.00
53546;BME280;39432;51.902;10.844;2023-02-12T05:00:37;101757.16;;;7.28;100.00
53546;BME280;39432;51.902;10.844;2023-02-12T05:03:07;101754.53;;;7.35;100.00
53546;BME280;39432;51.902;10.844;2023-02-12T05:05:39;101761.16;;;7.18;100.00
53546;BME280;39432;51.902;10.844;2023-02-12T05:08:09;101769.97;;;7.20;100.00
53546;BME280;39432;51.902;10.844;2023-02-12T05:10:38;101778.44;;;7.25;100.00
53546;BME280;39432;51.902;10.844;2023-02-12T05:13:09;101772.47;;;7.29;100.00
53546;BME280;39432;51.902;10.844;2023-02-12T05:15:39;101775.41;;;7.20;100.00
53546;BME280;39432;51.902;10.844;2023-02-12T05:18:08;101782.19;;;7.24;100.00
53546;BME280;39432;51.902;10.844;2023-02-12T05:20:40;101772.41;;;7.37;100.00
53546;BME280;39432;51.902;10.844;2023-02-12T05:23:10;101781.47;;;7.30;100.00
53546;BME280;39432;51.902;10.844;2023-02-12T05:25:40;101785.53;;;7.34;100.00
53546;BME280;39432;51.902;10.844;2023-02-12T05:28:09;101786.81;;;7.23;100.00
53546;BME280;39432;51.902;10.844;2023-02-12T05:30:39;101785.97;;;7.23;100.00
53546;BME280;39432;51.902;10.844;2023-02-12T05:33:09;101786.31;;;7.20;100.00
53546;BME280;39432;51.902;10.844;2023-02-12T05:35:41;101785.59;;;7.26;100.00
53546;BME280;39432;51.902;10.844;2023-02-12T05:38:10;101789.44;;;7.08;100.00
53546;BME280;39432;51.902;10.844;2023-02-12T05:40:40;101787.03;;;7.13;100.00
53546;BME280;39432;51.902;10.844;2023-02-12T05:43:10;101796.66;;;7.24;100.00
53546;BME280;39432;51.902;10.844;2023-02-12T05:45:39;101800.09;;;7.41;100.00
53546;BME280;39432;51.902;10.844;2023-02-12T05:48:10;101793.69;;;7.34;100.00
53546;BME280;39432;51.902;10.844;2023-02-12T05:50:42;101796.72;;;7.39;100.00
53546;BME280;39432;51.902;10.844;2023-02-12T05:53:12;101796.34;;;7.19;100.00
53546;BME280;39432;51.902;10.844;2023-02-12T05:55:41;101800.09;;;7.18;100.00
53546;BME280;39432;51.902;10.844;2023-02-12T05:58:11;101806.41;;;7.19;100.00
53546;BME280;39432;51.902;10.844;2023-02-12T06:00:42;101801.34;;;7.16;100.00
53546;BME280;39432;51.902;10.844;2023-02-12T06:03:12;101798.91;;;7.21;100.00
53546;BME280;39432;51.902;10.844;2023-02-12T06:05:49;101801.56;;;7.29;100.00
53546;BME280;39432;51.902;10.844;2023-02-12T06:08:19;101802.66;;;7.20;100.00
53546;BME280;39432;51.902;10.844;2023-02-12T06:10:48;101795.78;;;7.32;100.00
53546;BME280;39432;51.902;10.844;2023-02-12T06:13:18;101794.13;;;7.23;100.00
53546;BME280;39432;51.902;10.844;2023-02-12T06:15:47;101797.50;;;7.25;100.00
53546;BME280;39432;51.902;10.844;2023-02-12T06:18:17;101807.13;;;7.12;100.00
53546;BME280;39432;51.902;10.844;2023-02-12T06:20:49;101803.25;;;7.30;100.00
53546;BME280;39432;51.902;10.844;2023-02-12T06:23:20;101803.56;;;7.35;100.00
53546;BME280;39432;51.902;10.844;2023-02-12T06:25:55;101804.97;;;7.31;100.00
53546;BME280;39432;51.902;10.844;2023-02-12T06:28:25;101811.00;;;7.41;100.00
53546;BME280;39432;51.902;10.844;2023-02-12T06:30:55;101809.72;;;7.29;100.00
53546;BME280;39432;51.902;10.844;2023-02-12T06:33:24;101802.59;;;7.28;100.00
53546;BME280;39432;51.902;10.844;2023-02-12T06:35:57;101807.84;;;7.29;100.00
53546;BME280;39432;51.902;10.844;2023-02-12T06:38:26;101815.56;;;7.26;100.00
53546;BME280;39432;51.902;10.844;2023-02-12T06:40:56;101814.88;;;7.24;100.00
53546;BME280;39432;51.902;10.844;2023-02-12T06:43:26;101818.50;;;7.39;100.00
53546;BME280;39432;51.902;10.844;2023-02-12T06:45:59;101827.75;;;7.30;100.00
53546;BME280;39432;51.902;10.844;2023-02-12T06:48:29;101828.03;;;7.43;100.00
53546;BME280;39432;51.902;10.844;2023-02-12T06:51:06;101815.91;;;7.23;100.00
53546;BME280;39432;51.902;10.844;2023-02-12T06:53:37;101824.69;;;7.33;100.00
53546;BME280;39432;51.902;10.844;2023-02-12T06:56:08;101827.72;;;7.38;100.00
53546;BME280;39432;51.902;10.844;2023-02-12T06:58:41;101825.19;;;7.36;100.00
53546;BME280;39432;51.902;10.844;2023-02-12T07:01:13;101821.47;;;7.29;100.00
53546;BME280;39432;51.902;10.844;2023-02-12T07:03:47;101825.88;;;7.30;100.00
53546;BME280;39432;51.902;10.844;2023-02-12T07:06:20;101826.63;;;7.47;100.00
53546;BME280;39432;51.902;10.844;2023-02-12T07:08:50;101825.94;;;7.45;100.00
53546;BME280;39432;51.902;10.844;2023-02-12T07:11:22;101824.19;;;7.29;100.00
53546;BME280;39432;51.902;10.844;2023-02-12T07:13:51;101823.66;;;7.34;100.00
53546;BME280;39432;51.902;10.844;2023-02-12T07:16:22;101833.34;;;7.59;100.00
53546;BME280;39432;51.902;10.844;2023-02-12T07:18:51;101830.22;;;7.62;100.00
53546;BME280;39432;51.902;10.844;2023-02-12T07:21:24;101839.56;;;7.45;100.00
53546;BME280;39432;51.902;10.844;2023-02-12T07:23:53;101843.19;;;7.60;100.00
53546;BME280;39432;51.902;10.844;2023-02-12T07:26:23;101847.56;;;7.70;100.00
53546;BME280;39432;51.902;10.844;2023-02-12T07:28:52;101846.69;;;7.69;100.00
53546;BME280;39432;51.902;10.844;2023-02-12T07:31:22;101847.69;;;7.91;100.00
53546;BME280;39432;51.902;10.844;2023-02-12T07:33:54;101844.97;;;7.91;100.00
53546;BME280;39432;51.902;10.844;2023-02-12T07:36:28;101833.16;;;7.99;100.00
53546;BME280;39432;51.902;10.844;2023-02-12T07:38:58;101837.31;;;8.09;100.00
53546;BME280;39432;51.902;10.844;2023-02-12T07:41:29;101840.25;;;7.85;100.00
53546;BME280;39432;51.902;10.844;2023-02-12T07:44:01;101823.16;;;7.91;100.00
53546;BME280;39432;51.902;10.844;2023-02-12T07:46:35;101828.34;;;8.01;100.00
53546;BME280;39432;51.902;10.844;2023-02-12T07:49:06;101827.06;;;7.97;100.00
53546;BME280;39432;51.902;10.844;2023-02-12T07:51:39;101825.47;;;8.02;100.00
53546;BME280;39432;51.902;10.844;2023-02-12T07:54:09;101821.41;;;8.13;100.00
53546;BME280;39432;51.902;10.844;2023-02-12T07:56:41;101825.47;;;8.02;100.00
53546;BME280;39432;51.902;10.844;2023-02-12T07:59:14;101828.84;;;8.04;100.00
53546;BME280;39432;51.902;10.844;2023-02-12T08:01:45;101824.84;;;7.77;100.00
53546;BME280;39432;51.902;10.844;2023-02-12T08:04:17;101833.38;;;7.51;100.00
53546;BME280;39432;51.902;10.844;2023-02-12T08:06:52;101826.00;;;7.60;100.00
53546;BME280;39432;51.902;10.844;2023-02-12T08:09:24;101831.47;;;7.60;100.00
53546;BME280;39432;51.902;10.844;2023-02-12T08:11:54;101835.88;;;7.61;100.00
53546;BME280;39432;51.902;10.844;2023-02-12T08:14:25;101836.88;;;7.83;100.00
53546;BME280;39432;51.902;10.844;2023-02-12T08:16:55;101829.75;;;7.82;100.00
53546;BME280;39432;51.902;10.844;2023-02-12T08:19:25;101832.66;;;7.95;100.00
53546;BME280;39432;51.902;10.844;2023-02-12T08:21:57;101833.88;;;7.55;100.00
53546;BME280;39432;51.902;10.844;2023-02-12T08:24:28;101833.13;;;7.84;100.00
53546;BME280;39432;51.902;10.844;2023-02-12T08:26:58;101835.13;;;8.05;100.00
53546;BME280;39432;51.902;10.844;2023-02-12T08:29:28;101830.78;;;7.96;100.00
53546;BME280;39432;51.902;10.844;2023-02-12T08:32:00;101832.03;;;8.23;100.00
53546;BME280;39432;51.902;10.844;2023-02-12T08:34:33;101828.00;;;8.04;100.00
53546;BME280;39432;51.902;10.844;2023-02-12T08:37:06;101825.38;;;8.25;100.00
53546;BME280;39432;51.902;10.844;2023-02-12T08:39:35;101839.34;;;8.07;100.00
53546;BME280;39432;51.902;10.844;2023-02-12T08:42:05;101836.75;;;8.29;100.00
53546;BME280;39432;51.902;10.844;2023-02-12T08:44:35;101829.59;;;8.28;100.00
53546;BME280;39432;51.902;10.844;2023-02-12T08:47:06;101831.06;;;8.53;100.00
53546;BME280;39432;51.902;10.844;2023-02-12T08:49:36;101828.13;;;8.40;100.00
53546;BME280;39432;51.902;10.844;2023-02-12T08:52:08;101818.28;;;7.86;100.00
53546;BME280;39432;51.902;10.844;2023-02-12T08:54:38;101825.22;;;7.89;100.00
53546;BME280;39432;51.902;10.844;2023-02-12T08:57:07;101841.38;;;7.76;100.00
53546;BME280;39432;51.902;10.844;2023-02-12T08:59:37;101835.06;;;8.28;100.00
53546;BME280;39432;51.902;10.844;2023-02-12T09:02:08;101842.16;;;8.37;100.00
53546;BME280;39432;51.902;10.844;2023-02-12T09:04:38;101837.75;;;8.36;100.00
53546;BME280;39432;51.902;10.844;2023-02-12T09:07:10;101840.91;;;8.25;100.00
53546;BME280;39432;51.902;10.844;2023-02-12T09:09:39;101837.44;;;8.31;100.00
53546;BME280;39432;51.902;10.844;2023-02-12T09:12:09;101838.69;;;8.43;100.00
53546;BME280;39432;51.902;10.844;2023-02-12T09:14:39;101827.56;;;8.30;100.00
53546;BME280;39432;51.902;10.844;2023-02-12T09:17:09;101833.00;;;8.30;100.00
53546;BME280;39432;51.902;10.844;2023-02-12T09:19:38;101825.47;;;8.32;100.00
53546;BME280;39432;51.902;10.844;2023-02-12T09:22:11;101836.69;;;8.66;100.00
53546;BME280;39432;51.902;10.844;2023-02-12T09:24:40;101827.66;;;8.51;100.00
53546;BME280;39432;51.902;10.844;2023-02-12T09:27:10;101833.50;;;8.63;100.00
53546;BME280;39432;51.902;10.844;2023-02-12T09:29:39;101831.47;;;9.01;100.00
53546;BME280;39432;51.902;10.844;2023-02-12T09:32:09;101823.22;;;8.80;100.00
53546;BME280;39432;51.902;10.844;2023-02-12T09:34:39;101826.91;;;9.08;100.00
53546;BME280;39432;51.902;10.844;2023-02-12T09:37:11;101826.50;;;9.11;100.00
53546;BME280;39432;51.902;10.844;2023-02-12T09:39:40;101824.56;;;8.54;100.00
53546;BME280;39432;51.902;10.844;2023-02-12T09:42:30;101830.94;;;9.34;100.00
53546;BME280;39432;51.902;10.844;2023-02-12T09:45:10;101826.53;;;9.54;100.00
53546;BME280;39432;51.902;10.844;2023-02-12T09:47:50;101824.84;;;9.32;100.00
53546;BME280;39432;51.902;10.844;2023-02-12T09:50:42;101812.00;;;9.11;100.00
53546;BME280;39432;51.902;10.844;2023-02-12T09:53:18;101822.44;;;8.86;100.00
53546;BME280;39432;51.902;10.844;2023-02-12T09:55:49;101814.53;;;8.91;100.00
53546;BME280;39432;51.902;10.844;2023-02-12T09:58:23;101820.53;;;9.01;100.00
53546;BME280;39432;51.902;10.844;2023-02-12T10:00:57;101809.75;;;9.14;100.00
53546;BME280;39432;51.902;10.844;2023-02-12T10:03:29;101812.81;;;9.26;100.00
53546;BME280;39432;51.902;10.844;2023-02-12T10:06:02;101818.81;;;9.36;100.00
53546;BME280;39432;51.902;10.844;2023-02-12T10:08:54;101826.84;;;9.66;100.00
53546;BME280;39432;51.902;10.844;2023-02-12T10:11:46;101812.59;;;9.98;100.00
53546;BME280;39432;51.902;10.844;2023-02-12T10:14:44;101811.97;;;9.68;100.00
53546;BME280;39432;51.902;10.844;2023-02-12T10:17:24;101803.09;;;9.66;100.00
53546;BME280;39432;51.902;10.844;2023-02-12T10:23:02;101806.41;;;10.11;100.00
53546;BME280;39432;51.902;10.844;2023-02-12T10:25:45;101801.69;;;9.49;100.00
53546;BME280;39432;51.902;10.844;2023-02-12T10:28:24;101810.59;;;9.58;100.00
53546;BME280;39432;51.902;10.844;2023-02-12T10:30:55;101803.38;;;9.50;100.00
53546;BME280;39432;51.902;10.844;2023-02-12T10:33:27;101793.50;;;9.77;100.00
53546;BME280;39432;51.902;10.844;2023-02-12T10:36:01;101795.06;;;9.86;100.00
53546;BME280;39432;51.902;10.844;2023-02-12T10:38:36;101785.56;;;9.82;100.00
53546;BME280;39432;51.902;10.844;2023-02-12T10:41:13;101782.19;;;10.08;100.00
53546;BME280;39432;51.902;10.844;2023-02-12T10:43:44;101780.69;;;9.77;100.00
53546;BME280;39432;51.902;10.844;2023-02-12T10:46:14;101784.41;;;9.98;100.00
53546;BME280;39432;51.902;10.844;2023-02-12T10:48:47;101780.03;;;9.26;100.00
53546;BME280;39432;51.902;10.844;2023-02-12T10:51:41;101787.31;;;9.90;100.00
53546;BME280;39432;51.902;10.844;2023-02-12T10:54:31;101775.41;;;9.76;100.00
53546;BME280;39432;51.902;10.844;2023-02-12T10:57:10;101779.38;;;9.95;100.00
53546;BME280;39432;51.902;10.844;2023-02-12T10:59:42;101779.53;;;9.93;100.00
53546;BME280;39432;51.902;10.844;2023-02-12T11:02:22;101769.06;;;9.69;100.00
53546;BME280;39432;51.902;10.844;2023-02-12T11:04:53;101757.00;;;9.85;100.00
53546;BME280;39432;51.902;10.844;2023-02-12T11:07:26;101753.88;;;9.66;100.00
53546;BME280;39432;51.902;10.844;2023-02-12T11:09:56;101760.63;;;10.26;100.00
53546;BME280;39432;51.902;10.844;2023-02-12T11:12:32;101759.47;;;9.80;100.00
53546;BME280;39432;51.902;10.844;2023-02-12T11:15:06;101763.00;;;10.36;100.00
53546;BME280;39432;51.902;10.844;2023-02-12T11:17:43;101760.28;;;10.08;100.00
53546;BME280;39432;51.902;10.844;2023-02-12T11:20:20;101756.75;;;10.14;100.00
53546;BME280;39432;51.902;10.844;2023-02-12T11:22:54;101753.78;;;10.09;100.00
53546;BME280;39432;51.902;10.844;2023-02-12T11:25:27;101748.53;;;10.49;100.00
53546;BME280;39432;51.902;10.844;2023-02-12T11:28:13;101736.16;;;10.60;100.00
53546;BME280;39432;51.902;10.844;2023-02-12T11:30:50;101731.38;;;10.81;100.00
53546;BME280;39432;51.902;10.844;2023-02-12T11:33:29;101734.72;;;10.70;100.00
53546;BME280;39432;51.902;10.844;2023-02-12T11:36:03;101730.22;;;10.15;100.00
53546;BME280;39432;51.902;10.844;2023-02-12T11:38:36;101729.19;;;10.57;100.00
53546;BME280;39432;51.902;10.844;2023-02-12T11:41:22;101731.22;;;10.96;100.00
53546;BME280;39432;51.902;10.844;2023-02-12T11:43:55;101723.19;;;10.95;100.00
53546;BME280;39432;51.902;10.844;2023-02-12T11:46:26;101724.28;;;11.07;100.00
53546;BME280;39432;51.902;10.844;2023-02-12T11:48:56;101708.69;;;11.47;100.00
53546;BME280;39432;51.902;10.844;2023-02-12T11:51:28;101714.16;;;11.01;100.00
53546;BME280;39432;51.902;10.844;2023-02-12T11:54:02;101713.72;;;10.97;100.00
53546;BME280;39432;51.902;10.844;2023-02-12T11:56:40;101703.59;;;10.85;100.00
53546;BME280;39432;51.902;10.844;2023-02-12T11:59:25;101710.28;;;10.75;100.00
53546;BME280;39432;51.902;10.844;2023-02-12T12:01:58;101705.63;;;10.56;100.00
53546;BME280;39432;51.902;10.844;2023-02-12T12:04:32;101716.56;;;10.56;100.00
53546;BME280;39432;51.902;10.844;2023-02-12T12:07:07;101709.06;;;10.98;100.00
53546;BME280;39432;51.902;10.844;2023-02-12T12:09:44;101711.63;;;11.06;100.00
53546;BME280;39432;51.902;10.844;2023-02-12T12:12:20;101713.81;;;10.49;100.00
53546;BME280;39432;51.902;10.844;2023-02-12T12:14:56;101723.47;;;10.39;100.00
53546;BME280;39432;51.902;10.844;2023-02-12T12:17:44;101725.44;;;10.65;100.00
53546;BME280;39432;51.902;10.844;2023-02-12T12:20:31;101715.16;;;10.25;100.00
53546;BME280;39432;51.902;10.844;2023-02-12T12:23:06;101717.06;;;9.90;100.00
53546;BME280;39432;51.902;10.844;2023-02-12T12:25:43;101724.09;;;10.41;100.00
53546;BME280;39432;51.902;10.844;2023-02-12T12:28:27;101726.31;;;10.78;100.00
53546;BME280;39432;51.902;10.844;2023-02-12T12:31:05;101721.81;;;10.16;100.00
53546;BME280;39432;51.902;10.844;2023-02-12T12:33:42;101718.06;;;10.65;100.00
53546;BME280;39432;51.902;10.844;2023-02-12T12:36:34;101727.44;;;10.36;100.00
53546;BME280;39432;51.902;10.844;2023-02-12T12:39:14;101722.00;;;9.73;100.00
53546;BME280;39432;51.902;10.844;2023-02-12T12:41:57;101728.59;;;9.86;100.00
53546;BME280;39432;51.902;10.844;2023-02-12T12:44:42;101724.97;;;10.13;100.00
53546;BME280;39432;51.902;10.844;2023-02-12T12:47:22;101718.44;;;10.14;100.00
53546;BME280;39432;51.902;10.844;2023-02-12T12:50:03;101724.94;;;10.48;100.00
53546;BME280;39432;51.902;10.844;2023-02-12T12:52:48;101729.16;;;10.44;100.00
53546;BME280;39432;51.902;10.844;2023-02-12T12:55:43;101720.56;;;10.60;100.00
53546;BME280;39432;51.902;10.844;2023-02-12T12:58:19;101719.91;;;10.45;100.00
53546;BME280;39432;51.902;10.844;2023-02-12T13:01:05;101719.47;;;10.48;100.00
53546;BME280;39432;51.902;10.844;2023-02-12T13:17:12;101697.19;;;10.51;100.00
53546;BME280;39432;51.902;10.844;2023-02-12T13:19:54;101700.16;;;10.56;100.00
53546;BME280;39432;51.902;10.844;2023-02-12T13:22:28;101694.75;;;10.82;100.00
53546;BME280;39432;51.902;10.844;2023-02-12T13:25:12;101689.03;;;10.23;100.00
53546;BME280;39432;51.902;10.844;2023-02-12T13:27:45;101693.78;;;10.49;100.00
53546;BME280;39432;51.902;10.844;2023-02-12T13:30:19;101679.84;;;10.31;100.00